Home > Products > Valid Products > MTR

000
SAUS44 KLIX 252152
MTRBVE
METAR KBVE 252151Z AUTO 33014G24KT 10SM OVC110 13/03 A3012 RMK AO2
SLP200 T01330033





000
SAUS44 KLIX 252052
MTRBVE
METAR KBVE 252051Z AUTO 33013KT 10SM OVC110 14/04 A3011 RMK AO2
SLP195 T01390044 55001





000
SAUS44 KLIX 251952
MTRBVE
METAR KBVE 251951Z AUTO 34013G18KT 10SM OVC100 14/03 A3011 RMK AO2
PRESRR SLP195 T01440028





000
SAUS44 KLIX 251852
MTRBVE
METAR KBVE 251851Z AUTO 36010G22KT 10SM SCT090 BKN110 14/03 A3010
RMK AO2 SLP193 T01390033





000
SAUS44 KLIX 251752
MTRBVE
METAR KBVE 251751Z AUTO 35011G19KT 10SM SCT085 BKN110 14/05 A3011
RMK AO2 SLP196 T01440050 10150 20144 58008





000
SAUS44 KLIX 251652
MTRBVE
METAR KBVE 251651Z AUTO 01013G20KT 10SM FEW080 BKN110 14/05 A3014
RMK AO2 SLP206 T01440050





000
SAUS44 KLIX 251652
MTRBVE
METAR KBVE 251651Z AUTO 01013G20KT 10SM FEW080 BKN110 14/05 A3014
RMK AO2 SLP206 T01440050





000
SAUS44 KLIX 251552
MTRBVE
METAR KBVE 251551Z AUTO 02010G23KT 10SM BKN120 15/06 A3013 RMK AO2
SLP204 T01500056





000
SAUS44 KLIX 251452
MTRBVE
METAR KBVE 251451Z AUTO 03016G24KT 10SM OVC085 14/04 A3013 RMK AO2
SLP204 T01440044 51018





000
SAUS44 KLIX 251352
MTRBVE
METAR KBVE 251351Z AUTO 03018G25KT 10SM FEW080 BKN110 14/05 A3012
RMK AO2 PK WND 02028/1334 SLP199 T01440050





000
SAUS44 KLIX 251252
MTRBVE
METAR KBVE 251251Z AUTO 02013G21KT 10SM BKN090 BKN120 14/05 A3010
RMK AO2 SLP193 T01440050





000
SAUS44 KLIX 251152
MTRBVE
METAR KBVE 251151Z AUTO 03015G24KT 10SM BKN080 14/06 A3008 RMK AO2
SLP186 T01440056 10156 20144 51009





000
SAUS44 KLIX 251052
MTRBVE
METAR KBVE 251051Z AUTO 03016G24KT 10SM BKN120 14/06 A3007 RMK AO2
SLP183 T01440056





000
SAUS44 KLIX 251052
MTRBVE
METAR KBVE 251051Z AUTO 03016G24KT 10SM BKN120 14/06 A3007 RMK AO2
SLP183 T01440056





000
SAUS44 KLIX 250952
MTRBVE
METAR KBVE 250951Z AUTO 01010G20KT 10SM FEW080 SCT095 OVC120 14/06
A3007 RMK AO2 SLP182 T01440056





000
SAUS44 KLIX 250852
MTRBVE
METAR KBVE 250851Z AUTO 01012G19KT 10SM SCT080 BKN100 14/06 A3006
RMK AO2 SLP177 T01440061 50004





000
SAUS44 KLIX 250752
MTRBVE
METAR KBVE 250751Z AUTO 36011G19KT 10SM BKN080 OVC110 14/07 A3006
RMK AO2 SLP179 T01440072





000
SAUS44 KLIX 250652
MTRBVE
METAR KBVE 250651Z AUTO 35010G16KT 10SM BKN075 OVC095 15/08 A3006
RMK AO2 SLP178 T01500083





000
SAUS44 KLIX 250552
MTRBVE
METAR KBVE 250551Z AUTO 35009G16KT 10SM OVC085 15/09 A3005 RMK AO2
SLP174 T01500094 10172 20144 402330144 51014





000
SAUS44 KLIX 250452
MTRBVE
METAR KBVE 250451Z AUTO 35009KT 10SM BKN075 OVC090 16/10 A3004 RMK
AO2 SLP172 T01560100





000
SAUS44 KLIX 250352
MTRBVE
METAR KBVE 250351Z AUTO 34011KT 10SM BKN075 16/11 A3003 RMK AO2
SLP168 T01610106





000
SAUS44 KLIX 250252
MTRBVE
METAR KBVE 250251Z AUTO 34010KT 10SM CLR 16/11 A3000 RMK AO2 SLP160
T01610111 51026





000
SAUS44 KLIX 250152
MTRBVE
METAR KBVE 250151Z AUTO 34009KT 10SM CLR 17/12 A2998 RMK AO2 SLP151
T01670122





000
SAUS44 KLIX 250052
MTRBVE
METAR KBVE 250051Z AUTO 33007KT 10SM FEW075 FEW090 17/12 A2997 RMK
AO2 SLP150 T01720117





000
SAUS44 KLIX 242352
MTRBVE
METAR KBVE 242351Z AUTO 32010KT 10SM FEW085 17/12 A2993 RMK AO2
SLP133 T01720122 10222 20172 53015





000
SAUS44 KLIX 242252
MTRBVE
METAR KBVE 242251Z AUTO 32008KT 10SM CLR 18/12 A2991 RMK AO2 SLP128
T01780122





000
SAUS44 KLIX 242153 COR
MTRBVE
METAR KBVE 242151Z AUTO 33009KT 10SM CLR 19/12 A2989 RMK AO2 SLP122
T01940122





000
SAUS44 KLIX 242153 COR
MTRBVE
METAR KBVE 242151Z AUTO 33009KT 10SM CLR 19/12 A2989 RMK AO2 SLP122
T01940122





000
SAUS44 KLIX 242052
MTRBVE
METAR KBVE 242051Z AUTO 32009KT 10SM CLR 21/14 A2988 RMK AO2 SLP118
T02110144 53002





000
SAUS44 KLIX 241952
MTRBVE
METAR KBVE 241951Z AUTO 33013KT 10SM CLR 21/14 A2985 RMK AO2 SLP108
T02110139





000
SAUS44 KLIX 241852
MTRBVE
METAR KBVE 241851Z AUTO 33012KT 10SM FEW017 21/15 A2986 RMK AO2
SLP111 T02110150





000
SAUS44 KLIX 241752
MTRBVE
METAR KBVE 241751Z AUTO 33011KT 8SM FEW018 22/18 A2988 RMK AO2
SLP116 T02220178 10233 20189 51000





000
SAUS44 KLIX 241652
MTRBVE
METAR KBVE 241651Z AUTO 32009KT 10SM CLR 23/18 A2987 RMK AO2 SLP115
T02280178





000
SAUS44 KLIX 241552
MTRBVE
METAR KBVE 241551Z AUTO 30010KT 8SM CLR 21/19 A2989 RMK AO2 SLP120
T02110189





000
SAUS44 KLIX 241452
MTRBVE
METAR KBVE 241451Z AUTO 28008KT 3SM BR CLR 19/19 A2988 RMK AO2
SLP116 T01940194 53016





000
SAUS44 KLIX 241417
MTRBVE
SPECI KBVE 241416Z AUTO 28007KT 3SM BR SCT005 20/20 A2987 RMK AO2
T02000200





000
SAUS44 KLIX 241352
MTRBVE
METAR KBVE 241351Z AUTO 28007KT 2 1/2SM BR BKN006 OVC011 20/20 A2986
RMK AO2 SLP111 T02000200





000
SAUS44 KLIX 241339
MTRBVE
SPECI KBVE 241338Z AUTO 28007KT 2SM BR BKN009 19/19 A2986 RMK AO2
CIG 006V012 T01940194





000
SAUS44 KLIX 241336
MTRBVE
SPECI KBVE 241335Z AUTO 28006KT 1 3/4SM BR FEW006 BKN011 19/19 A2986
RMK AO2 T01940194





000
SAUS44 KLIX 241252
MTRBVE
METAR KBVE 241251Z AUTO 23005KT 2 1/2SM BR CLR 19/19 A2983 RMK AO2
SLP100 T01890189





000
SAUS44 KLIX 241251
MTRBVE
SPECI KBVE 241249Z AUTO 23005KT 2 1/2SM BR CLR 19/19 A2983 RMK AO2





000
SAUS44 KLIX 241153
MTRBVE
METAR KBVE 241151Z AUTO 26009KT 5SM BR CLR 19/19 A2981 RMK AO2
SLP094 70029 T01940194 10200 20178 53009





000
SAUS44 KLIX 241113
MTRBVE
SPECI KBVE 241112Z AUTO 25005KT 3SM BR SCT007 18/18 A2980 RMK AO2
T01830183





000
SAUS44 KLIX 241108
MTRBVE
SPECI KBVE 241107Z AUTO 24004KT 1 3/4SM BR BKN007 18/18 A2980 RMK
AO2 T01780178





000
SAUS44 KLIX 241101
MTRBVE
SPECI KBVE 241059Z AUTO 24004KT 3/4SM BR VV006 18/18 A2979 RMK AO2
T01780178





000
SAUS44 KLIX 241052
MTRBVE
METAR KBVE 241051Z AUTO 24004KT 1/2SM FG VV004 18/18 A2979 RMK AO2
SLP089 T01780178





000
SAUS44 KLIX 241045
MTRBVE
SPECI KBVE 241044Z AUTO 26004KT 1/4SM FG VV003 18/18 A2979 RMK AO2
T01830183





000
SAUS44 KLIX 241035
MTRBVE
SPECI KBVE 241034Z AUTO 24004KT 1/2SM FG VV002 19/19 A2979 RMK AO2
T01890189





000
SAUS44 KLIX 240953
MTRBVE
METAR KBVE 240951Z AUTO 20007KT 1/4SM FG VV002 19/19 A2979 RMK AO2
SLP087 T01890189





000
SAUS44 KLIX 240953
MTRBVE
METAR KBVE 240951Z AUTO 20007KT 1/4SM FG VV002 19/19 A2979 RMK AO2
SLP087 T01890189





000
SAUS44 KLIX 240944
MTRBVE
SPECI KBVE 240943Z AUTO 21005KT 1/4SM FG VV001 19/19 A2979 RMK AO2
T01890189





000
SAUS44 KLIX 240944
MTRBVE
SPECI KBVE 240943Z AUTO 21005KT 1/4SM FG VV001 19/19 A2979 RMK AO2
T01890189





000
SAUS44 KLIX 240920
MTRBVE
SPECI KBVE 240918Z AUTO 20006KT 1/4SM FG VV002 19/19 A2979 RMK AO2
T01890189





000
SAUS44 KLIX 240911
MTRBVE
SPECI KBVE 240910Z AUTO 20007KT 1/2SM FG VV003 19/19 A2979 RMK AO2
T01940194





000
SAUS44 KLIX 240859
MTRBVE
SPECI KBVE 240858Z AUTO 20007KT 1/2SM FG VV005 19/19 A2978 RMK AO2
T01940194





000
SAUS44 KLIX 240852
MTRBVE
METAR KBVE 240851Z AUTO 20007KT 1SM BR VV007 19/19 A2978 RMK AO2
SLP084 T01940194 53003





000
SAUS44 KLIX 240835
MTRBVE
SPECI KBVE 240834Z AUTO 20006KT 2 1/2SM BR OVC009 19/19 A2978 RMK
AO2 T01940194





000
SAUS44 KLIX 240752
MTRBVE
METAR KBVE 240751Z AUTO 20005KT 2 1/2SM BR OVC011 19/19 A2978 RMK
AO2 SLP083 T01940194





000
SAUS44 KLIX 240722
MTRBVE
SPECI KBVE 240721Z AUTO 20006KT 4SM BR BKN013 19/19 A2977 RMK AO2
T01940194





000
SAUS44 KLIX 240652
MTRBVE
METAR KBVE 240651Z AUTO 19006KT 5SM BR FEW045 19/19 A2977 RMK AO2
SLP079 T01940194





000
SAUS44 KLIX 240552
MTRBVE
METAR KBVE 240551Z AUTO 20007KT 6SM BR FEW017 19/19 A2977 RMK AO2
SLP081 T01940194 10200 20189 402110161 51006





000
SAUS44 KLIX 240452
MTRBVE
METAR KBVE 240451Z AUTO 19008KT 7SM CLR 19/19 A2977 RMK AO2 SLP080
T01940194





000
SAUS44 KLIX 240409
MTRBVE
SPECI KBVE 240408Z AUTO 19009KT 8SM FEW024 SCT030 BKN036 19/19 A2977
RMK AO2 T01940194





000
SAUS44 KLIX 240409
MTRBVE
SPECI KBVE 240408Z AUTO 19009KT 8SM FEW024 SCT030 BKN036 19/19 A2977
RMK AO2 T01940194





000
SAUS44 KLIX 240352
MTRBVE
METAR KBVE 240351Z AUTO 19009KT 9SM BKN028 OVC035 20/20 A2977 RMK
AO2 SLP081 T02000200





000
SAUS44 KLIX 240335
MTRBVE
SPECI KBVE 240334Z AUTO 19009KT 9SM FEW017 OVC029 19/19 A2977 RMK
AO2 T01940194





000
SAUS44 KLIX 240252
MTRBVE
METAR KBVE 240251Z AUTO 18011KT 9SM FEW021 FEW036 19/19 A2975 RMK
AO2 SLP075 T01940194 51007





000
SAUS44 KLIX 240248
MTRBVE
SPECI KBVE 240247Z AUTO 18012KT 9SM FEW013 SCT020 19/19 A2975 RMK
AO2





000
SAUS44 KLIX 240238
MTRBVE
SPECI KBVE 240237Z AUTO 18011KT 9SM SCT013 BKN020 19/19 A2975 RMK
AO2 T01940194





000
SAUS44 KLIX 240216
MTRBVE
SPECI KBVE 240214Z AUTO 19009KT 8SM BKN013 BKN017 19/19 A2975 RMK
AO2 T01940194





000
SAUS44 KLIX 240207
MTRBVE
SPECI KBVE 240206Z AUTO 18008KT 7SM SCT011 BKN017 19/19 A2975 RMK
AO2 T01890189





000
SAUS44 KLIX 240152
MTRBVE
METAR KBVE 240151Z AUTO 18007KT 8SM FEW012 SCT017 19/19 A2975 RMK
AO2 SLP072 T01890189





000
SAUS44 KLIX 240052
MTRBVE
METAR KBVE 240051Z AUTO 19009KT 9SM CLR 19/19 A2973 RMK AO2 SLP068
T01890189





000
SAUS44 KLIX 240007
MTRBVE
SPECI KBVE 240006Z AUTO 19008KT 9SM FEW019 SCT024 19/19 A2972 RMK
AO2 T01890189





000
SAUS44 KLIX 232352
MTRBVE
METAR KBVE 232351Z AUTO 19009KT 9SM BKN020 BKN025 19/19 A2972 RMK
AO2 SLP063 T01940189 10211 20178 53008





000
SAUS44 KLIX 232341
MTRBVE
SPECI KBVE 232340Z AUTO 19009KT 9SM BKN023 19/19 A2972 RMK AO2
T01940189





000
SAUS44 KLIX 232252
MTRBVE
METAR KBVE 232251Z AUTO 20010KT 8SM FEW020 19/19 A2970 RMK AO2
SLP058 T01940189





000
SAUS44 KLIX 232152
MTRBVE
METAR KBVE 232151Z AUTO 20013KT 7SM CLR 21/19 A2970 RMK AO2 SLP056
T02060189





000
SAUS44 KLIX 232152
MTRBVE
METAR KBVE 232151Z AUTO 20013KT 7SM CLR 21/19 A2970 RMK AO2 SLP056
T02060189





000
SAUS44 KLIX 232052
MTRBVE
METAR KBVE 232051Z AUTO 21014G21KT 8SM FEW080 21/18 A2969 RMK AO2
SLP055 T02110183 55019





000
SAUS44 KLIX 231952
MTRBVE
METAR KBVE 231951Z AUTO 21014G24KT 9SM CLR 21/18 A2969 RMK AO2
SLP053 T02060178





000
SAUS44 KLIX 231852
MTRBVE
METAR KBVE 231851Z AUTO 22017G24KT 9SM CLR 20/18 A2971 RMK AO2 PK
WND 21026/1752 SLP059 T02000178





000
SAUS44 KLIX 231820
MTRBVE
SPECI KBVE 231818Z AUTO 22017G24KT 9SM SCT019 18/17 A2971 RMK AO2 PK
WND 21026/1752 T01830167





000
SAUS44 KLIX 231806
MTRBVE
SPECI KBVE 231804Z AUTO 21018G25KT 8SM BKN019 18/17 A2972 RMK AO2 PK
WND 21026/1752 PRESFR T01830167





000
SAUS44 KLIX 231752
MTRBVE
METAR KBVE 231751Z AUTO 21017G26KT 9SM FEW019 SCT110 18/17 A2975 RMK
AO2 PK WND 21026/1749 RAE40 SLP073 P0007 60029 T01780167 10206 20161
56019





000
SAUS44 KLIX 231652
MTRBVE
METAR KBVE 231651Z AUTO 19011KT 3SM -RA BR FEW065 BKN090 OVC110
17/17 A2976 RMK AO2 SLP076 P0009 T01670167





000
SAUS44 KLIX 231552
MTRBVE
METAR KBVE 231551Z AUTO 21012KT 8SM -RA SCT070 BKN095 OVC110 17/16
A2979 RMK AO2 SLP089 P0006 T01720161





000
SAUS44 KLIX 231552
MTRBVE
METAR KBVE 231551Z AUTO 21012KT 8SM -RA SCT070 BKN095 OVC110 17/16
A2979 RMK AO2 SLP089 P0006 T01720161





000
SAUS44 KLIX 231452
MTRBVE
METAR KBVE 231451Z AUTO 23009KT 8SM -RA FEW050 OVC070 17/17 A2980
RMK AO2 SLP092 P0002 60007 T01670167 53018





000
SAUS44 KLIX 231352
MTRBVE
METAR KBVE 231351Z AUTO 26015G27KT 7SM -RA BKN049 OVC060 17/16 A2980
RMK AO2 PK WND 23033/1304 WSHFT 1255 RAB06 SLP091 P0005 T01670161





000
SAUS44 KLIX 231319
MTRBVE
SPECI KBVE 231318Z AUTO 25014G22KT 3SM -RA BR SCT037 BKN046 OVC110
17/17 A2980 RMK AO2 PK WND 23033/1304 WSHFT 1255 RAB06 P0005
T01670167





000
SAUS44 KLIX 231315 COR
MTRBVE
SPECI KBVE 231309Z AUTO 24016G33KT 1 3/4SM +RA BR FEW011 BKN060
OVC110 17/17 A2980 RMK AO2 PK WND 23033/1304 WSHFT 1255 RAB06 PRESRR
P0003 T01720172





000
SAUS44 KLIX 231313 COR
MTRBVE
SPECI KBVE 231309Z AUTO 24016G33KT 1 3/4SM +RA BR FEW011 BKN060
OVC110 17/17 A2980 RMK AO2 PK WND 23033/1304 WSHFT 1255 RAB06 PRESRR
P0003 T01720172





000
SAUS44 KLIX 231311 COR
MTRBVE
SPECI KBVE 231309Z AUTO 24016G33KT 1 3/4SM +RA BR FEW011 BKN060
OVC110 17/17 A2980 RMK AO2 PK WND 23033/1304 WSHFT 1255 RAB06 PRESRR
P0003 T01720172





000
SAUS44 KLIX 231252
MTRBVE
METAR KBVE 231251Z AUTO 16011KT 8SM FEW016 SCT043 OVC110 20/20 A2975
RMK AO2 SLP074 T02000200





000
SAUS44 KLIX 231228
MTRBVE
SPECI KBVE 231227Z AUTO 17009KT 10SM FEW010 BKN029 OVC041 19/19
A2976 RMK AO2 T01940194





000
SAUS44 KLIX 231153
MTRBVE
METAR KBVE 231151Z AUTO 13008KT 10SM BKN033 OVC045 20/20 A2972 RMK
AO2 RAB15E25 SLP065 P0000 60000 T02000200 10200 20178 56019





000
SAUS44 KLIX 231103
MTRBVE
SPECI KBVE 231102Z AUTO 12007KT 8SM SCT002 19/19 A2972 RMK AO2
T01890189





000
SAUS44 KLIX 231052
MTRBVE
METAR KBVE 231051Z AUTO 13005KT 5SM BR BKN002 19/19 A2973 RMK AO2
SLP066 T01890189





000
SAUS44 KLIX 231044
MTRBVE
SPECI KBVE 231043Z AUTO 13005KT 2SM BR OVC002 19/19 A2973 RMK AO2
T01890189





000
SAUS44 KLIX 231030
MTRBVE
SPECI KBVE 231029Z AUTO 12005KT 1SM BR VV002 19/19 A2973 RMK AO2
T01890189





000
SAUS44 KLIX 231030
MTRBVE
SPECI KBVE 231029Z AUTO 12005KT 1SM BR VV002 19/19 A2973 RMK AO2
T01890189





000
SAUS44 KLIX 231021
MTRBVE
SPECI KBVE 231020Z AUTO 12006KT 2 1/2SM BR BKN003 19/19 A2974 RMK
AO2 T01890189





000
SAUS44 KLIX 231008
MTRBVE
SPECI KBVE 231007Z AUTO 12006KT 7SM FEW007 SCT120 19/19 A2974 RMK
AO2 PRESFR T01890189





000
SAUS44 KLIX 230952
MTRBVE
METAR KBVE 230951Z AUTO 12004KT 8SM BKN007 BKN012 BKN120 19/19 A2976
RMK AO2 CIG 004V010 SLP078 T01890189





000
SAUS44 KLIX 230952
MTRBVE
METAR KBVE 230951Z AUTO 12004KT 8SM BKN007 BKN012 BKN120 19/19 A2976
RMK AO2 CIG 004V010 SLP078 T01890189





000
SAUS44 KLIX 230943
MTRBVE
SPECI KBVE 230942Z AUTO 10004KT 9SM BKN007 BKN013 BKN120 19/19 A2977
RMK AO2 T01940194





000
SAUS44 KLIX 230943
MTRBVE
SPECI KBVE 230942Z AUTO 10004KT 9SM BKN007 BKN013 BKN120 19/19 A2977
RMK AO2 T01940194





000
SAUS44 KLIX 230935
MTRBVE
SPECI KBVE 230934Z AUTO 12004KT 9SM SCT009 BKN013 BKN120 19/19 A2978
RMK AO2 T01940194





000
SAUS44 KLIX 230852
MTRBVE
METAR KBVE 230851Z AUTO 12005KT 7SM CLR 18/18 A2978 RMK AO2 SLP084
T01830183 58026





000
SAUS44 KLIX 230823
MTRBVE
SPECI KBVE 230822Z AUTO 11007KT 8SM SCT019 18/18 A2979 RMK AO2
T01830183





000
SAUS44 KLIX 230752
MTRBVE
METAR KBVE 230751Z AUTO 11005KT 9SM FEW012 OVC019 18/18 A2982 RMK
AO2 SLP098 T01830183





000
SAUS44 KLIX 230652
MTRBVE
METAR KBVE 230651Z AUTO 09007KT 10SM FEW011 BKN020 BKN120 18/18
A2985 RMK AO2 SLP106 T01830183





000
SAUS44 KLIX 230552
MTRBVE
METAR KBVE 230551Z AUTO 10010KT 10SM FEW011 18/18 A2986 RMK AO2
SLP110 60000 T01830183 10189 20167 402110144 58044





000
SAUS44 KLIX 230523
MTRBVE
SPECI KBVE 230522Z AUTO 10008KT 10SM SCT013 18/18 A2988 RMK AO2
T01830183





000
SAUS44 KLIX 230514
MTRBVE
SPECI KBVE 230513Z AUTO 10010KT 9SM BKN013 18/18 A2989 RMK AO2
PRESFR T01780178





000
SAUS44 KLIX 230508
MTRBVE
SPECI KBVE 230506Z AUTO 10008KT 8SM SCT013 BKN021 18/18 A2991 RMK
AO2 T01780178





000
SAUS44 KLIX 230452
MTRBVE
METAR KBVE 230451Z AUTO 09007KT 8SM SCT019 SCT085 BKN110 18/18 A2992
RMK AO2 RAB26E39 SLP131 P0000 T01780178





000
SAUS44 KLIX 230441 COR
MTRBVE
SPECI KBVE 230436Z AUTO 09008KT 9SM -RA FEW017 SCT085 BKN110 18/18
A2993 RMK AO2 RAB26 P0000 T01780178





000
SAUS44 KLIX 230441 COR
MTRBVE
SPECI KBVE 230436Z AUTO 09008KT 9SM -RA FEW017 SCT085 BKN110 18/18
A2993 RMK AO2 RAB26 P0000 T01780178





000
SAUS44 KLIX 230440 COR
MTRBVE
SPECI KBVE 230436Z AUTO 09008KT 9SM -RA FEW017 SCT085 BKN110 18/18
A2993 RMK AO2 RAB26 P0000 T01780178





000
SAUS44 KLIX 230440 COR
MTRBVE
SPECI KBVE 230436Z AUTO 09008KT 9SM -RA FEW017 SCT085 BKN110 18/18
A2993 RMK AO2 RAB26 P0000 T01780178





000
SAUS44 KLIX 230353
MTRBVE
METAR KBVE 230351Z AUTO 08007KT 9SM BKN016 OVC027 18/18 A2996 RMK
AO2 CIG 012V023 SLP143 T01780178





000
SAUS44 KLIX 230341
MTRBVE
SPECI KBVE 230340Z AUTO 08008KT 8SM SCT015 BKN027 OVC040 17/17 A2996
RMK AO2 T01720172





000
SAUS44 KLIX 230341
MTRBVE
SPECI KBVE 230340Z AUTO 08008KT 8SM SCT015 BKN027 OVC040 17/17 A2996
RMK AO2 T01720172





000
SAUS44 KLIX 230327
MTRBVE
SPECI KBVE 230326Z AUTO 08008KT 7SM FEW011 SCT031 BKN038 17/17 A2996
RMK AO2 T01720172





000
SAUS44 KLIX 230318
MTRBVE
SPECI KBVE 230316Z AUTO 07008KT 7SM FEW011 BKN029 BKN040 17/17 A2996
RMK AO2 T01670167





000
SAUS44 KLIX 230310
MTRBVE
SPECI KBVE 230309Z AUTO 07007KT 7SM SCT013 SCT019 BKN038 17/17 A2997
RMK AO2 T01670167





000
SAUS44 KLIX 230252
MTRBVE
METAR KBVE 230251Z AUTO 06008KT 7SM BKN013 OVC018 17/17 A2999 RMK
AO2 SLP154 60000 T01670167 55014





000
SAUS44 KLIX 230159
MTRBVE
SPECI KBVE 230158Z AUTO 06003KT 10SM BKN014 18/18 A2998 RMK AO2
T01830178





000
SAUS44 KLIX 230152
MTRBVE
METAR KBVE 230151Z AUTO 06005KT 10SM SCT015 18/18 A2998 RMK AO2
RAE33 SLP150 P0000 T01830178





000
SAUS44 KLIX 230137
MTRBVE
SPECI KBVE 230136Z AUTO 09008KT 10SM SCT015 18/18 A2997 RMK AO2
RAE33 P0000 T01830183





000
SAUS44 KLIX 230126
MTRBVE
SPECI KBVE 230125Z AUTO 09007KT 10SM -RA BKN015 19/18 A2999 RMK AO2
P0000 T01890183





000
SAUS44 KLIX 230112
MTRBVE
SPECI KBVE 230111Z AUTO 09008KT 10SM -RA BKN013 19/18 A2999 RMK AO2
P0000 T01890183





000
SAUS44 KLIX 230052
MTRBVE
METAR KBVE 230051Z AUTO 10008KT 10SM -RA FEW012 SCT018 19/18 A3000
RMK AO2 RAB30 SLP157 P0000 T01890183





000
SAUS44 KLIX 230044
MTRBVE
SPECI KBVE 230042Z AUTO 10009KT 10SM -RA FEW013 BKN019 BKN070 19/18
A2999 RMK AO2 RAB30 PRESFR P0000 T01890183





000
SAUS44 KLIX 222352
MTRBVE
METAR KBVE 222351Z AUTO 10005KT 10SM SCT010 BKN013 OVC120 19/19
A3003 RMK AO2 SLP168 T01890189 10206 20189 58007





000
SAUS44 KLIX 222331
MTRBVE
SPECI KBVE 222330Z AUTO 10008KT 10SM BKN011 BKN110 19/18 A3003 RMK
AO2 T01890183





000
SAUS44 KLIX 222252
MTRBVE
METAR KBVE 222251Z AUTO 09008KT 10SM CLR 19/18 A3003 RMK AO2 SLP169
T01890183





    US Dept of Commerce
    National Oceanic and Atmospheric Administration
    National Weather Service
    1325 East West Highway
    Silver Spring, MD 20910
    Page Author: NWS Internet Services Team
Disclaimer
Information Quality
Credits
Glossary
Privacy Policy
Freedom of Information Act (FOIA)
About Us
Career Opportunities